createdAt,value
2017-12-20T00:00:56.356Z,1025.67
2017-12-20T00:01:58.543Z,1025.64
2017-12-20T00:03:50.994Z,1025.62
2017-12-20T00:04:51.086Z,1025.62
2017-12-20T00:06:45.678Z,1025.65
2017-12-20T00:07:45.783Z,1025.60
2017-12-20T00:09:39.825Z,1025.63
2017-12-20T00:10:39.219Z,1025.65
2017-12-20T00:12:31.793Z,1025.62
2017-12-20T00:13:32.814Z,1025.67
2017-12-20T00:15:26.383Z,1025.62
2017-12-20T00:16:25.366Z,1025.64
2017-12-20T00:18:20.540Z,1025.62
2017-12-20T00:19:19.899Z,1025.57
2017-12-20T00:21:12.596Z,1025.53
2017-12-20T00:22:13.450Z,1025.52
2017-12-20T00:24:05.951Z,1025.51
2017-12-20T00:25:06.999Z,1025.49
2017-12-20T00:26:59.667Z,1025.51
2017-12-20T00:28:00.579Z,1025.47
2017-12-20T00:29:53.306Z,1025.48
2017-12-20T00:30:54.127Z,1025.44
2017-12-20T00:32:47.707Z,1025.45
2017-12-20T00:33:47.688Z,1025.49
2017-12-20T00:35:40.158Z,1025.47
2017-12-20T00:36:41.277Z,1025.49
2017-12-20T00:38:34.856Z,1025.43
2017-12-20T00:39:32.801Z,1025.44
2017-12-20T00:41:27.496Z,1025.42
2017-12-20T00:42:28.361Z,1025.38
2017-12-20T00:44:22.847Z,1025.34
2017-12-20T00:45:21.974Z,1025.35
2017-12-20T00:47:14.564Z,1025.37
2017-12-20T00:48:15.542Z,1025.39
2017-12-20T00:50:08.006Z,1025.41
2017-12-20T00:51:09.020Z,1025.44
2017-12-20T00:53:03.183Z,1025.50
2017-12-20T00:54:01.788Z,1025.48
2017-12-20T00:55:56.144Z,1025.46
2017-12-20T00:56:56.195Z,1025.45
2017-12-20T00:58:48.885Z,1025.44
2017-12-20T00:59:49.728Z,1025.46
2017-12-20T01:01:42.413Z,1025.49
2017-12-20T01:02:43.400Z,1025.48
2017-12-20T01:04:36.815Z,1025.53
2017-12-20T01:05:36.792Z,1025.52
2017-12-20T01:07:29.512Z,1025.51
2017-12-20T01:08:30.420Z,1025.52
2017-12-20T01:10:23.868Z,1025.47
2017-12-20T01:11:23.911Z,1025.47
2017-12-20T01:13:16.636Z,1025.50
2017-12-20T01:14:17.474Z,1025.49
2017-12-20T01:16:10.175Z,1025.55
2017-12-20T01:17:11.038Z,1025.55
2017-12-20T01:19:03.729Z,1025.58
2017-12-20T01:20:04.640Z,1025.58
2017-12-20T01:21:57.391Z,1025.63
2017-12-20T01:22:58.141Z,1025.65
2017-12-20T01:24:51.717Z,1025.66
2017-12-20T01:25:51.711Z,1025.69
2017-12-20T01:27:44.369Z,1025.75
2017-12-20T01:28:45.301Z,1025.73
2017-12-20T01:30:37.810Z,1025.67
2017-12-20T01:31:38.809Z,1025.72
2017-12-20T01:33:32.411Z,1025.69
2017-12-20T01:34:32.370Z,1025.70
2017-12-20T01:36:25.061Z,1025.67
2017-12-20T01:37:25.933Z,1025.63
2017-12-20T01:39:18.629Z,1025.63
2017-12-20T01:40:19.493Z,1025.62
2017-12-20T01:42:13.059Z,1025.58
2017-12-20T01:43:13.052Z,1025.62
2017-12-20T01:45:05.479Z,1025.60
2017-12-20T01:46:06.600Z,1025.57
2017-12-20T01:48:01.104Z,1025.59
2017-12-20T01:49:00.153Z,1025.57
2017-12-20T01:50:54.329Z,1025.53
2017-12-20T01:51:53.844Z,1025.55
2017-12-20T01:53:46.453Z,1025.52
2017-12-20T01:54:47.261Z,1025.50
2017-12-20T01:56:40.883Z,1025.49
2017-12-20T01:57:40.833Z,1025.51
2017-12-20T01:59:34.321Z,1025.47
2017-12-20T02:00:32.825Z,1025.45
2017-12-20T02:02:27.957Z,1025.36
2017-12-20T02:03:27.946Z,1025.37
2017-12-20T02:05:20.645Z,1025.39
2017-12-20T02:06:21.564Z,1025.42
2017-12-20T02:08:13.934Z,1025.38
2017-12-20T02:09:15.090Z,1025.36
2017-12-20T02:11:07.755Z,1025.44
2017-12-20T02:12:08.614Z,1025.44
2017-12-20T02:14:01.158Z,1025.41
2017-12-20T02:15:02.185Z,1025.38
2017-12-20T02:16:54.874Z,1025.37
2017-12-20T02:17:55.725Z,1025.33
2017-12-20T02:19:49.110Z,1025.30
2017-12-20T02:20:49.303Z,1025.34
2017-12-20T02:22:41.977Z,1025.30
2017-12-20T02:23:42.827Z,1025.31
2017-12-20T02:25:36.428Z,1025.36
2017-12-20T02:26:37.326Z,1025.36
2017-12-20T02:49:57.092Z,1025.35
2017-12-20T02:50:57.196Z,1025.33
2017-12-20T02:52:50.682Z,1025.32
2017-12-20T02:53:50.721Z,1025.29
2017-12-20T02:55:43.373Z,1025.29
2017-12-20T02:56:44.287Z,1025.26
2017-12-20T02:58:36.810Z,1025.20
2017-12-20T02:59:37.830Z,1025.18
2017-12-20T03:01:29.524Z,1025.25
2017-12-20T03:02:31.403Z,1025.23
2017-12-20T03:04:24.937Z,1025.23
2017-12-20T03:05:24.971Z,1025.20
2017-12-20T03:07:17.660Z,1025.24
2017-12-20T03:08:18.491Z,1025.21
2017-12-20T03:10:11.179Z,1025.18
2017-12-20T03:11:12.070Z,1025.21
2017-12-20T03:13:04.701Z,1025.20
2017-12-20T03:14:05.607Z,1025.18
2017-12-20T03:15:58.199Z,1025.16
2017-12-20T03:16:57.304Z,1025.18
2017-12-20T03:18:51.243Z,1025.20
2017-12-20T03:19:52.728Z,1025.25
2017-12-20T03:21:45.383Z,1025.29
2017-12-20T03:22:46.285Z,1025.27
2017-12-20T03:24:39.844Z,1025.30
2017-12-20T03:25:39.875Z,1025.33
2017-12-20T03:27:32.553Z,1025.36
2017-12-20T03:28:33.419Z,1025.31
2017-12-20T03:30:27.037Z,1025.31
2017-12-20T03:31:26.400Z,1025.32
2017-12-20T03:33:19.612Z,1025.28
2017-12-20T03:34:19.372Z,1025.25
2017-12-20T03:36:14.052Z,1025.30
2017-12-20T03:37:14.069Z,1025.32
2017-12-20T03:39:06.797Z,1025.31
2017-12-20T03:40:07.610Z,1025.33
2017-12-20T03:42:01.181Z,1025.28
2017-12-20T03:43:01.203Z,1025.26
2017-12-20T03:44:53.823Z,1025.31
2017-12-20T03:45:54.724Z,1025.30
2017-12-20T03:47:48.330Z,1025.32
2017-12-20T03:48:48.231Z,1025.29
2017-12-20T03:50:41.027Z,1025.28
2017-12-20T03:51:39.854Z,1025.29
2017-12-20T03:53:35.415Z,1025.25
2017-12-20T03:54:34.535Z,1025.28
2017-12-20T03:56:27.919Z,1025.28
2017-12-20T03:57:28.981Z,1025.26
2017-12-20T03:59:22.519Z,1025.27
2017-12-20T04:00:22.562Z,1025.21
2017-12-20T04:02:16.687Z,1025.17
2017-12-20T04:03:16.133Z,1025.15
2017-12-20T04:05:09.824Z,1025.23
2017-12-20T04:06:09.639Z,1025.25
2017-12-20T04:08:02.361Z,1025.25
2017-12-20T04:09:03.196Z,1025.25
2017-12-20T04:10:55.955Z,1025.27
2017-12-20T04:11:56.742Z,1025.24
2017-12-20T04:13:50.312Z,1025.31
2017-12-20T04:14:50.309Z,1025.33
2017-12-20T04:16:43.159Z,1025.26
2017-12-20T04:17:43.846Z,1025.25
2017-12-20T04:19:37.417Z,1025.33
2017-12-20T04:20:37.429Z,1025.32
2017-12-20T04:22:30.100Z,1025.34
2017-12-20T04:23:30.971Z,1025.28
2017-12-20T04:25:24.535Z,1025.31
2017-12-20T04:26:24.548Z,1025.27
2017-12-20T04:28:16.981Z,1025.24
2017-12-20T04:29:18.092Z,1025.24
2017-12-20T04:31:11.640Z,1025.23
2017-12-20T04:32:11.652Z,1025.30
2017-12-20T04:34:05.834Z,1025.36
2017-12-20T04:35:05.215Z,1025.35
2017-12-20T04:36:58.598Z,1025.31
2017-12-20T04:37:58.799Z,1025.33
2017-12-20T04:39:50.161Z,1025.32
2017-12-20T04:40:52.318Z,1025.31
2017-12-20T04:42:44.896Z,1025.39
2017-12-20T04:43:45.937Z,1025.34
2017-12-20T04:45:40.050Z,1025.31
2017-12-20T04:46:39.491Z,1025.25
2017-12-20T04:48:31.987Z,1025.23
2017-12-20T04:49:33.006Z,1025.20
2017-12-20T04:51:23.791Z,1025.24
2017-12-20T04:52:24.576Z,1025.24
2017-12-20T04:54:19.156Z,1025.28
2017-12-20T04:55:20.186Z,1025.30
2017-12-20T04:57:13.697Z,1025.39
2017-12-20T04:58:13.707Z,1025.36
2017-12-20T05:00:07.029Z,1025.41
2017-12-20T05:01:07.302Z,1025.53
2017-12-20T05:02:58.978Z,1025.54
2017-12-20T05:04:00.814Z,1025.54
2017-12-20T05:05:53.482Z,1025.54
2017-12-20T05:06:54.388Z,1025.51
2017-12-20T05:08:45.351Z,1025.53
2017-12-20T05:09:46.028Z,1025.51
2017-12-20T05:11:41.513Z,1025.46
2017-12-20T05:12:41.491Z,1025.49
2017-12-20T05:14:34.200Z,1025.51
2017-12-20T05:15:35.100Z,1025.49
2017-12-20T05:17:27.767Z,1025.43
2017-12-20T05:18:28.610Z,1025.39
2017-12-20T05:20:22.168Z,1025.40
2017-12-20T05:21:22.166Z,1025.43
2017-12-20T05:23:14.914Z,1025.49
2017-12-20T05:24:15.741Z,1025.47
2017-12-20T05:26:08.649Z,1025.45
2017-12-20T05:27:09.297Z,1025.50
2017-12-20T05:29:01.227Z,1025.51
2017-12-20T05:30:02.842Z,1025.49
2017-12-20T05:31:56.388Z,1025.47
2017-12-20T05:32:56.438Z,1025.46
2017-12-20T05:34:49.064Z,1025.48
2017-12-20T05:35:49.973Z,1025.48
2017-12-20T05:37:42.622Z,1025.45
2017-12-20T05:38:43.511Z,1025.47
2017-12-20T05:40:36.016Z,1025.45
2017-12-20T05:41:37.074Z,1025.43
2017-12-20T05:43:30.395Z,1025.42
2017-12-20T05:44:30.623Z,1025.43
2017-12-20T05:46:23.108Z,1025.37
2017-12-20T05:47:24.185Z,1025.37
2017-12-20T05:49:17.797Z,1025.37
2017-12-20T05:50:17.741Z,1025.31
2017-12-20T05:52:10.384Z,1025.29
2017-12-20T05:53:11.349Z,1025.33
2017-12-20T05:55:04.776Z,1025.32
2017-12-20T05:56:04.854Z,1025.30
2017-12-20T05:57:57.494Z,1025.30
2017-12-20T05:58:58.407Z,1025.26
2017-12-20T06:00:49.801Z,1025.22
2017-12-20T06:01:51.961Z,1025.25
2017-12-20T06:03:44.566Z,1025.24
2017-12-20T06:04:45.519Z,1025.22
2017-12-20T06:06:39.073Z,1025.18
2017-12-20T06:07:39.098Z,1025.19
2017-12-20T06:09:31.756Z,1025.21
2017-12-20T06:10:32.623Z,1025.25
2017-12-20T06:12:26.801Z,1025.20
2017-12-20T06:13:26.190Z,1025.21
2017-12-20T06:15:19.747Z,1025.22
2017-12-20T06:16:19.787Z,1025.22
2017-12-20T06:18:12.340Z,1025.24
2017-12-20T06:19:13.391Z,1025.28
2017-12-20T06:21:06.732Z,1025.27
2017-12-20T06:22:06.870Z,1025.27
2017-12-20T06:23:59.548Z,1025.27
2017-12-20T06:25:00.458Z,1025.25
2017-12-20T06:26:52.894Z,1025.29
2017-12-20T06:27:53.979Z,1025.33
2017-12-20T06:29:47.583Z,1025.36
2017-12-20T06:30:47.577Z,1025.40
2017-12-20T06:32:40.212Z,1025.43
2017-12-20T06:33:41.128Z,1025.41
2017-12-20T06:35:31.756Z,1025.43
2017-12-20T06:36:34.782Z,1025.45
2017-12-20T06:38:27.309Z,1025.50
2017-12-20T06:39:28.257Z,1025.52
2017-12-20T06:41:20.377Z,1025.51
2017-12-20T06:42:21.793Z,1025.51
2017-12-20T06:44:14.252Z,1025.53
2017-12-20T06:45:15.224Z,1025.52
2017-12-20T06:47:08.854Z,1025.55
2017-12-20T06:48:08.923Z,1025.51
2017-12-20T06:50:01.538Z,1025.57
2017-12-20T06:51:02.423Z,1025.60
2017-12-20T06:52:55.979Z,1025.59
2017-12-20T06:53:56.023Z,1025.59
2017-12-20T06:55:48.565Z,1025.59
2017-12-20T06:56:49.564Z,1025.57
2017-12-20T07:12:31.162Z,1025.63
2017-12-20T07:13:31.938Z,1025.66
2017-12-20T07:15:24.596Z,1025.64
2017-12-20T07:16:22.871Z,1025.68
2017-12-20T07:18:17.957Z,1025.69
2017-12-20T07:19:19.048Z,1025.71
2017-12-20T07:21:12.609Z,1025.74
2017-12-20T07:22:12.643Z,1025.75
2017-12-20T07:24:05.099Z,1025.79
2017-12-20T07:25:06.181Z,1025.85
2017-12-20T07:26:59.743Z,1025.89
2017-12-20T07:27:59.746Z,1025.87
2017-12-20T07:29:52.405Z,1025.90
2017-12-20T07:30:53.276Z,1025.98
2017-12-20T07:32:45.840Z,1025.99
2017-12-20T07:33:44.218Z,1025.99
2017-12-20T07:35:40.398Z,1025.97
2017-12-20T07:36:40.444Z,1026.01
2017-12-20T07:38:33.038Z,1025.97
2017-12-20T07:39:33.961Z,1025.97
2017-12-20T07:41:27.505Z,1025.96
2017-12-20T07:42:27.508Z,1025.98
2017-12-20T07:44:20.164Z,1025.99
2017-12-20T07:45:21.064Z,1025.96
2017-12-20T07:47:14.626Z,1025.92
2017-12-20T07:48:14.645Z,1025.91
2017-12-20T07:50:07.097Z,1025.93
2017-12-20T07:51:05.563Z,1025.94
2017-12-20T07:53:00.843Z,1025.93
2017-12-20T07:54:01.742Z,1025.91
2017-12-20T07:55:54.447Z,1025.92
2017-12-20T07:56:55.308Z,1025.91
2017-12-20T07:58:48.862Z,1025.90
2017-12-20T07:59:48.873Z,1025.90
2017-12-20T08:01:41.338Z,1025.85
2017-12-20T08:02:42.420Z,1025.85
2017-12-20T08:04:35.989Z,1025.88
2017-12-20T08:05:35.982Z,1025.84
2017-12-20T08:07:28.514Z,1025.81
2017-12-20T08:08:26.909Z,1025.80
2017-12-20T08:10:23.118Z,1025.82
2017-12-20T08:11:23.122Z,1025.80
2017-12-20T08:13:15.813Z,1025.81
2017-12-20T08:14:16.712Z,1025.85
2017-12-20T08:16:09.135Z,1025.86
2017-12-20T08:17:10.233Z,1025.87
2017-12-20T08:19:02.858Z,1025.89
2017-12-20T08:20:03.767Z,1025.94
2017-12-20T08:21:57.333Z,1025.96
2017-12-20T08:22:57.341Z,1025.94
2017-12-20T08:24:49.884Z,1025.99
2017-12-20T08:25:50.372Z,1026.00
2017-12-20T08:27:45.400Z,1026.06
2017-12-20T08:28:44.546Z,1026.05
2017-12-20T08:30:37.010Z,1026.10
2017-12-20T08:31:38.026Z,1026.11
2017-12-20T08:33:31.496Z,1026.16
2017-12-20T08:34:31.556Z,1026.19
2017-12-20T08:36:24.255Z,1026.17
2017-12-20T08:37:25.115Z,1026.23
2017-12-20T08:39:17.724Z,1026.20
2017-12-20T08:40:18.724Z,1026.25
2017-12-20T08:42:12.251Z,1026.26
2017-12-20T08:43:09.613Z,1026.26
2017-12-20T08:45:04.919Z,1026.29
2017-12-20T08:46:04.946Z,1026.30
2017-12-20T08:47:58.480Z,1026.32
2017-12-20T08:48:59.384Z,1026.32
2017-12-20T08:50:52.822Z,1026.34
2017-12-20T08:51:52.949Z,1026.34
2017-12-20T08:54:06.695Z,1026.39
2017-12-20T08:54:46.507Z,1026.40
2017-12-20T08:56:40.980Z,1026.41
2017-12-20T08:57:40.058Z,1026.40
2017-12-20T08:59:32.724Z,1026.40
2017-12-20T09:00:33.604Z,1026.40
2017-12-20T09:02:27.162Z,1026.38
2017-12-20T09:03:27.172Z,1026.39
2017-12-20T09:05:19.845Z,1026.41
2017-12-20T09:06:20.716Z,1026.43
2017-12-20T09:08:14.104Z,1026.43
2017-12-20T09:09:14.294Z,1026.46
2017-12-20T09:11:06.948Z,1026.51
2017-12-20T09:12:07.863Z,1026.51
2017-12-20T09:14:00.708Z,1026.54
2017-12-20T09:15:01.395Z,1026.59
2017-12-20T09:16:54.977Z,1026.65
2017-12-20T09:17:54.942Z,1026.63
2017-12-20T09:19:47.379Z,1026.68
2017-12-20T09:20:48.527Z,1026.72
2017-12-20T09:22:42.118Z,1026.70
2017-12-20T09:23:42.062Z,1026.67
2017-12-20T09:25:34.972Z,1026.68
2017-12-20T09:26:35.656Z,1026.64
2017-12-20T09:28:29.181Z,1026.72
2017-12-20T09:29:29.169Z,1026.71
2017-12-20T09:31:21.812Z,1026.70
2017-12-20T09:32:22.797Z,1026.76
2017-12-20T09:34:15.264Z,1026.76
2017-12-20T09:35:16.328Z,1026.74
2017-12-20T09:37:09.918Z,1026.78
2017-12-20T09:38:09.862Z,1026.73
2017-12-20T09:40:02.333Z,1026.76
2017-12-20T09:41:03.407Z,1026.76
2017-12-20T09:42:54.492Z,1026.78
2017-12-20T09:43:56.963Z,1026.77
2017-12-20T09:45:49.500Z,1026.86
2017-12-20T09:46:50.541Z,1026.88
2017-12-20T09:48:43.236Z,1026.93
2017-12-20T09:49:44.080Z,1026.91
2017-12-20T09:51:36.834Z,1026.89
2017-12-20T09:52:35.653Z,1026.88
2017-12-20T09:54:31.375Z,1026.86
2017-12-20T09:55:31.221Z,1026.87
2017-12-20T09:57:23.829Z,1026.82
2017-12-20T09:58:24.775Z,1026.79
2017-12-20T10:00:18.916Z,1026.79
2017-12-20T10:01:18.313Z,1026.80
2017-12-20T10:03:11.797Z,1026.80
2017-12-20T10:04:11.914Z,1026.80
2017-12-20T10:06:04.460Z,1026.77
2017-12-20T10:07:05.440Z,1026.78
2017-12-20T10:08:59.034Z,1026.76
2017-12-20T10:09:58.984Z,1026.75
2017-12-20T10:11:51.676Z,1026.73
2017-12-20T10:12:52.579Z,1026.73
2017-12-20T10:14:44.977Z,1026.77
2017-12-20T10:15:46.146Z,1026.84
2017-12-20T10:17:39.554Z,1026.83
2017-12-20T10:18:39.699Z,1026.81
2017-12-20T10:20:32.362Z,1026.81
2017-12-20T10:21:33.220Z,1026.79
2017-12-20T10:23:26.784Z,1026.78
2017-12-20T10:24:26.831Z,1026.78
2017-12-20T10:26:19.310Z,1026.75
2017-12-20T10:27:20.344Z,1026.77
2017-12-20T10:29:13.926Z,1026.73
2017-12-20T10:30:13.957Z,1026.72
2017-12-20T10:32:06.515Z,1026.72
2017-12-20T10:33:07.487Z,1026.70
2017-12-20T10:35:01.040Z,1026.68
2017-12-20T10:36:01.017Z,1026.68
2017-12-20T10:37:51.781Z,1026.73
2017-12-20T10:38:54.649Z,1026.67
2017-12-20T10:40:48.129Z,1026.68
2017-12-20T10:41:48.146Z,1026.67
2017-12-20T10:43:39.036Z,1026.70
2017-12-20T10:44:41.679Z,1026.68
2017-12-20T10:46:34.308Z,1026.67
2017-12-20T10:47:35.279Z,1026.68
2017-12-20T10:49:28.609Z,1026.64
2017-12-20T10:50:28.887Z,1026.63
2017-12-20T10:52:21.480Z,1026.63
2017-12-20T10:53:22.353Z,1026.65
2017-12-20T10:55:16.514Z,1026.66
2017-12-20T10:56:15.920Z,1026.64
2017-12-20T10:58:07.668Z,1026.67
2017-12-20T10:59:09.479Z,1026.65
2017-12-20T11:01:02.179Z,1026.64
2017-12-20T11:02:03.019Z,1026.64
2017-12-20T11:03:56.639Z,1026.68
2017-12-20T11:04:56.599Z,1026.68
2017-12-20T11:06:50.067Z,1026.68
2017-12-20T11:07:50.207Z,1026.66
2017-12-20T11:09:43.219Z,1026.65
2017-12-20T11:10:43.801Z,1026.66
2017-12-20T11:12:37.222Z,1026.66
2017-12-20T11:13:37.311Z,1026.67
2017-12-20T11:15:29.986Z,1026.65
2017-12-20T11:16:30.970Z,1026.64
2017-12-20T11:18:24.444Z,1026.64
2017-12-20T11:19:24.393Z,1026.61
2017-12-20T11:21:15.146Z,1026.64
2017-12-20T11:22:18.001Z,1026.61
2017-12-20T11:24:10.557Z,1026.63
2017-12-20T11:25:11.515Z,1026.61
2017-12-20T11:27:03.256Z,1026.64
2017-12-20T11:28:05.150Z,1026.72
2017-12-20T11:29:57.586Z,1026.72
2017-12-20T11:30:58.643Z,1026.68
2017-12-20T11:32:52.013Z,1026.68
2017-12-20T11:33:52.195Z,1026.68
2017-12-20T11:35:44.730Z,1026.64
2017-12-20T11:36:45.834Z,1026.67
2017-12-20T11:38:38.373Z,1026.64
2017-12-20T11:39:39.419Z,1026.60
2017-12-20T11:41:32.904Z,1026.58
2017-12-20T11:42:32.853Z,1026.62
2017-12-20T11:44:23.627Z,1026.60
2017-12-20T11:45:26.419Z,1026.58
2017-12-20T11:47:19.989Z,1026.55
2017-12-20T11:48:19.149Z,1026.54
2017-12-20T11:50:12.690Z,1026.52
2017-12-20T11:51:13.518Z,1026.52
2017-12-20T11:53:07.116Z,1026.48
2017-12-20T11:54:07.101Z,1026.51
2017-12-20T11:55:59.814Z,1026.46
2017-12-20T11:57:01.537Z,1026.43
2017-12-20T11:58:54.292Z,1026.41
2017-12-20T11:59:54.194Z,1026.42
2017-12-20T12:01:44.953Z,1026.40
2017-12-20T12:02:47.782Z,1026.38
2017-12-20T12:04:40.445Z,1026.33
2017-12-20T12:05:41.337Z,1026.30
2017-12-20T12:07:33.978Z,1026.32
2017-12-20T12:08:34.913Z,1026.29
2017-12-20T12:10:28.527Z,1026.33
2017-12-20T12:11:28.429Z,1026.30
2017-12-20T12:13:21.151Z,1026.25
2017-12-20T12:14:20.170Z,1026.21
2017-12-20T12:16:15.534Z,1026.22
2017-12-20T12:17:15.592Z,1026.24
2017-12-20T12:19:08.220Z,1026.27
2017-12-20T12:20:09.126Z,1026.28
2017-12-20T12:22:02.732Z,1026.27
2017-12-20T12:23:02.751Z,1026.25
2017-12-20T12:24:55.415Z,1026.17
2017-12-20T12:25:56.265Z,1026.17
2017-12-20T12:27:49.873Z,1026.15
2017-12-20T12:28:49.831Z,1026.16
2017-12-20T12:30:42.515Z,1026.15
2017-12-20T12:31:42.790Z,1026.18
2017-12-20T12:33:36.042Z,1026.19
2017-12-20T12:34:36.963Z,1026.20
2017-12-20T12:36:30.530Z,1026.21
2017-12-20T12:37:30.473Z,1026.23
2017-12-20T12:39:23.071Z,1026.22
2017-12-20T12:40:23.594Z,1026.23
2017-12-20T12:42:17.687Z,1026.24
2017-12-20T12:43:17.587Z,1026.23
2017-12-20T12:45:11.817Z,1026.20
2017-12-20T12:46:11.207Z,1026.19
2017-12-20T12:48:04.774Z,1026.16
2017-12-20T12:49:02.059Z,1026.16
2017-12-20T12:50:57.205Z,1026.17
2017-12-20T12:51:58.295Z,1026.17
2017-12-20T12:53:51.835Z,1026.18
2017-12-20T12:54:51.889Z,1026.15
2017-12-20T12:56:46.020Z,1026.15
2017-12-20T12:57:45.375Z,1026.13
2017-12-20T12:59:39.538Z,1026.08
2017-12-20T13:00:38.995Z,1026.12
2017-12-20T13:02:31.507Z,1026.10
2017-12-20T13:03:32.551Z,1026.05
2017-12-20T13:05:26.087Z,1026.09
2017-12-20T13:06:26.066Z,1026.11
2017-12-20T13:08:18.709Z,1026.10
2017-12-20T13:09:19.704Z,1026.08
2017-12-20T13:11:13.165Z,1026.11
2017-12-20T13:12:13.171Z,1026.13
2017-12-20T13:14:04.553Z,1026.09
2017-12-20T13:15:06.753Z,1026.09
2017-12-20T13:17:00.294Z,1026.14
2017-12-20T13:18:00.412Z,1026.10
2017-12-20T13:19:53.023Z,1026.09
2017-12-20T13:20:53.890Z,1026.08
2017-12-20T13:22:47.449Z,1026.10
2017-12-20T13:23:47.466Z,1026.08
2017-12-20T13:25:40.477Z,1026.05
2017-12-20T13:26:40.995Z,1026.09
2017-12-20T13:28:31.653Z,1026.01
2017-12-20T13:29:33.863Z,1026.05
2017-12-20T13:31:27.231Z,1026.08
2017-12-20T13:32:28.115Z,1026.09
2017-12-20T13:34:21.661Z,1026.14
2017-12-20T13:35:21.823Z,1026.16
2017-12-20T13:37:14.358Z,1026.19
2017-12-20T13:38:15.210Z,1026.19
2017-12-20T13:40:07.914Z,1026.20
2017-12-20T13:41:08.741Z,1026.20
2017-12-20T13:43:02.336Z,1026.21
2017-12-20T13:44:02.353Z,1026.26
2017-12-20T13:45:55.001Z,1026.26
2017-12-20T13:46:55.925Z,1026.29
2017-12-20T13:48:47.283Z,1026.31
2017-12-20T13:49:49.448Z,1026.32
2017-12-20T13:51:41.981Z,1026.35
2017-12-20T13:52:43.025Z,1026.33
2017-12-20T13:54:36.527Z,1026.33
2017-12-20T13:55:36.575Z,1026.36
2017-12-20T13:57:29.256Z,1026.40
2017-12-20T13:58:30.107Z,1026.42
2017-12-20T14:00:23.701Z,1026.43
2017-12-20T14:01:23.711Z,1026.43
2017-12-20T14:03:16.290Z,1026.46
2017-12-20T14:04:17.376Z,1026.45
2017-12-20T14:06:09.346Z,1026.45
2017-12-20T14:07:10.797Z,1026.46
2017-12-20T14:09:03.439Z,1026.52
2017-12-20T14:10:04.389Z,1026.56
2017-12-20T14:11:57.916Z,1026.47
2017-12-20T14:12:57.895Z,1026.48
2017-12-20T14:14:48.672Z,1026.46
2017-12-20T14:15:51.525Z,1026.44
2017-12-20T14:17:44.908Z,1026.51
2017-12-20T14:19:57.553Z,1026.48
2017-12-20T14:20:58.404Z,1026.46
2017-12-20T14:22:52.046Z,1026.41
2017-12-20T14:23:51.975Z,1026.40
2017-12-20T14:25:44.599Z,1026.38
2017-12-20T14:26:45.699Z,1026.39
2017-12-20T14:28:39.109Z,1026.44
2017-12-20T14:29:39.142Z,1026.41
2017-12-20T14:31:31.613Z,1026.44
2017-12-20T14:32:32.638Z,1026.44
2017-12-20T14:34:26.272Z,1026.36
2017-12-20T14:35:26.260Z,1026.37
2017-12-20T14:37:20.423Z,1026.34
2017-12-20T14:38:19.829Z,1026.29
2017-12-20T14:40:12.268Z,1026.31
2017-12-20T14:41:13.352Z,1026.32
2017-12-20T14:43:06.879Z,1026.29
2017-12-20T14:44:06.886Z,1026.25
2017-12-20T14:45:59.570Z,1026.17
2017-12-20T14:47:00.449Z,1026.18
2017-12-20T14:48:53.476Z,1026.20
2017-12-20T14:49:54.040Z,1026.27
2017-12-20T14:51:47.589Z,1026.25
2017-12-20T14:52:47.576Z,1026.26
2017-12-20T14:54:41.741Z,1026.35
2017-12-20T14:55:41.115Z,1026.38
2017-12-20T14:57:34.664Z,1026.41
2017-12-20T14:58:34.688Z,1026.42
2017-12-20T15:00:27.345Z,1026.48
2017-12-20T15:01:28.255Z,1026.47
2017-12-20T15:03:19.624Z,1026.51
2017-12-20T15:04:21.835Z,1026.51
2017-12-20T15:06:14.477Z,1026.42
2017-12-20T15:07:15.356Z,1026.44
2017-12-20T15:09:08.979Z,1026.52
2017-12-20T15:10:08.951Z,1026.58
2017-12-20T15:12:00.143Z,1026.63
2017-12-20T15:13:02.500Z,1026.64
2017-12-20T15:14:55.099Z,1026.60
2017-12-20T15:15:56.011Z,1026.56
2017-12-20T15:17:48.734Z,1026.60
2017-12-20T15:18:49.577Z,1026.68
2017-12-20T15:20:40.924Z,1026.66
2017-12-20T15:21:43.170Z,1026.61
2017-12-20T15:23:35.889Z,1026.57
2017-12-20T15:24:36.688Z,1026.60
2017-12-20T15:26:30.260Z,1026.64
2017-12-20T15:27:30.287Z,1026.61
2017-12-20T15:29:22.968Z,1026.57
2017-12-20T15:30:23.843Z,1026.57
2017-12-20T15:32:17.369Z,1026.56
2017-12-20T15:33:17.371Z,1026.54
2017-12-20T15:35:10.066Z,1026.52
2017-12-20T15:36:10.930Z,1026.51
2017-12-20T15:38:02.209Z,1026.41
2017-12-20T15:39:04.509Z,1026.41
2017-12-20T15:40:57.210Z,1026.42
2017-12-20T15:41:58.048Z,1026.43
2017-12-20T15:43:51.668Z,1026.43
2017-12-20T15:44:51.609Z,1026.44
2017-12-20T15:46:44.031Z,1026.49
2017-12-20T15:47:45.160Z,1026.53
2017-12-20T15:49:37.843Z,1026.62
2017-12-20T15:50:38.767Z,1026.61
2017-12-20T15:52:31.491Z,1026.60
2017-12-20T15:53:32.270Z,1026.56
2017-12-20T15:55:22.979Z,1026.49
2017-12-20T15:56:25.737Z,1026.50
2017-12-20T15:58:18.500Z,1026.51
2017-12-20T15:59:19.404Z,1026.47
2017-12-20T16:01:12.983Z,1026.42
2017-12-20T16:02:12.986Z,1026.42
2017-12-20T16:04:05.652Z,1026.44
2017-12-20T16:05:06.536Z,1026.51
2017-12-20T16:06:59.220Z,1026.70
2017-12-20T16:08:00.102Z,1026.77
2017-12-20T16:09:53.599Z,1026.78
2017-12-20T16:10:53.675Z,1026.79
2017-12-20T16:12:44.441Z,1026.80
2017-12-20T16:13:47.251Z,1026.79
2017-12-20T16:15:40.798Z,1026.90
2017-12-20T16:16:40.762Z,1026.99
2017-12-20T16:18:33.464Z,1027.02
2017-12-20T16:19:34.301Z,1026.99
2017-12-20T16:21:27.912Z,1026.99
2017-12-20T16:22:27.889Z,1027.01
2017-12-20T16:24:20.768Z,1027.05
2017-12-20T16:25:19.539Z,1027.05
2017-12-20T16:27:14.982Z,1027.03
2017-12-20T16:28:14.978Z,1027.03
2017-12-20T16:30:05.754Z,1027.08
2017-12-20T16:31:08.559Z,1027.12
2017-12-20T16:33:02.174Z,1027.10
2017-12-20T16:34:01.365Z,1027.11
2017-12-20T16:35:54.784Z,1027.12
2017-12-20T16:36:55.703Z,1027.06
2017-12-20T16:38:49.258Z,1027.08
2017-12-20T16:39:49.230Z,1027.07
2017-12-20T16:41:41.912Z,1027.06
2017-12-20T16:42:42.770Z,1027.09
2017-12-20T16:44:36.396Z,1027.09
2017-12-20T16:45:36.425Z,1027.08
2017-12-20T16:47:28.122Z,1027.06
2017-12-20T16:48:29.891Z,1027.05
2017-12-20T16:50:23.485Z,1027.07
2017-12-20T16:51:23.439Z,1027.09
2017-12-20T16:53:15.806Z,1027.08
2017-12-20T16:54:17.006Z,1027.09
2017-12-20T16:56:10.551Z,1027.04
2017-12-20T16:57:10.574Z,1027.00
2017-12-20T16:59:03.249Z,1027.01
2017-12-20T17:00:02.326Z,1026.99
2017-12-20T17:01:57.732Z,1026.95
2017-12-20T17:02:57.702Z,1026.99
2017-12-20T17:04:50.324Z,1026.97
2017-12-20T17:05:51.241Z,1027.03
2017-12-20T17:07:43.690Z,1026.98
2017-12-20T17:08:44.859Z,1026.98
2017-12-20T17:10:37.481Z,1026.97
2017-12-20T17:11:38.352Z,1026.96
2017-12-20T17:13:31.076Z,1026.87
2017-12-20T17:14:31.951Z,1026.90
2017-12-20T17:16:24.596Z,1026.84
2017-12-20T17:17:24.848Z,1026.86
2017-12-20T17:19:18.934Z,1026.85
2017-12-20T17:20:19.085Z,1026.87
2017-12-20T17:22:13.213Z,1026.96
2017-12-20T17:23:12.601Z,1026.95
2017-12-20T17:25:05.305Z,1026.94
2017-12-20T17:26:06.216Z,1026.96
2017-12-20T17:27:59.522Z,1026.95
2017-12-20T17:29:00.596Z,1026.96
2017-12-20T17:30:52.560Z,1026.99
2017-12-20T17:31:53.306Z,1026.95
2017-12-20T17:33:46.821Z,1026.88
2017-12-20T17:34:44.231Z,1026.88
2017-12-20T17:36:39.501Z,1026.86
2017-12-20T17:37:40.418Z,1026.86
2017-12-20T17:39:33.756Z,1026.83
2017-12-20T17:40:33.979Z,1026.81
2017-12-20T17:42:26.451Z,1026.80
2017-12-20T17:43:27.492Z,1026.82
2017-12-20T17:45:21.085Z,1026.82
2017-12-20T17:46:21.119Z,1026.83
2017-12-20T17:48:13.763Z,1026.82
2017-12-20T17:49:14.617Z,1026.84
2017-12-20T17:51:07.951Z,1026.76
2017-12-20T17:52:05.494Z,1026.79
2017-12-20T17:54:00.862Z,1026.82
2017-12-20T17:56:15.174Z,1026.86
2017-12-20T17:57:12.705Z,1026.88
2017-12-20T17:59:07.741Z,1026.89
2017-12-20T18:00:08.691Z,1026.91
2017-12-20T18:02:02.291Z,1027.04
2017-12-20T18:03:02.312Z,1027.08
2017-12-20T18:04:54.949Z,1027.12
2017-12-20T18:05:55.852Z,1027.11